createdAt,value
2018-08-14T00:00:11.097Z,93.4
2018-08-14T00:01:11.769Z,93.4
2018-08-14T00:02:12.444Z,93.4
2018-08-14T00:03:13.118Z,93.1
2018-08-14T00:04:13.795Z,93.4
2018-08-14T00:05:14.471Z,93.7
2018-08-14T00:06:15.152Z,93.6
2018-08-14T00:07:15.821Z,93.4
2018-08-14T00:08:16.500Z,93.7
2018-08-14T00:09:17.173Z,94.2
2018-08-14T00:10:17.848Z,94.4
2018-08-14T00:11:18.523Z,94.9
2018-08-14T00:12:19.199Z,94.6
2018-08-14T00:13:19.874Z,94.9
2018-08-14T00:14:20.549Z,95.2
2018-08-14T00:15:21.224Z,95.3
2018-08-14T00:16:21.898Z,95.5
2018-08-14T00:17:22.573Z,95.6
2018-08-14T00:18:23.249Z,96.1
2018-08-14T00:19:23.922Z,95.9
2018-08-14T00:20:24.598Z,95.8
2018-08-14T00:21:25.272Z,95.7
2018-08-14T00:22:25.947Z,96.8
2018-08-14T00:23:26.625Z,96.5
2018-08-14T00:24:27.299Z,96.5
2018-08-14T00:25:27.974Z,96.5
2018-08-14T00:26:28.648Z,97.1
2018-08-14T00:27:29.324Z,97.1
2018-08-14T00:28:30.001Z,97.2
2018-08-14T00:29:30.681Z,96.4
2018-08-14T00:30:31.394Z,96.5
2018-08-14T00:31:32.071Z,96.6
2018-08-14T00:32:32.745Z,96.8
2018-08-14T00:33:33.419Z,96.5
2018-08-14T00:34:34.097Z,96.5
2018-08-14T00:35:34.769Z,97.1
2018-08-14T00:36:35.443Z,97.2
2018-08-14T00:37:36.120Z,96.8
2018-08-14T00:38:36.794Z,96.8
2018-08-14T00:39:37.470Z,96.5
2018-08-14T00:40:38.144Z,95.9
2018-08-14T00:41:38.818Z,95.6
2018-08-14T00:42:39.495Z,95.9
2018-08-14T00:43:40.168Z,95.7
2018-08-14T00:44:40.845Z,95.1
2018-08-14T00:45:41.518Z,95.1
2018-08-14T00:46:42.238Z,94.9
2018-08-14T00:47:42.915Z,95.1
2018-08-14T00:48:43.590Z,95.1
2018-08-14T00:49:44.265Z,94.8
2018-08-14T00:50:44.940Z,94.9
2018-08-14T00:51:45.615Z,95.1
2018-08-14T00:52:46.291Z,94.6
2018-08-14T00:53:46.966Z,94.9
2018-08-14T00:54:47.641Z,95.0
2018-08-14T00:55:48.315Z,95.2
2018-08-14T00:56:48.993Z,95.0
2018-08-14T00:57:49.666Z,94.0
2018-08-14T00:58:50.342Z,94.2
2018-08-14T00:59:51.060Z,94.1
2018-08-14T01:00:51.740Z,94.8
2018-08-14T01:01:52.413Z,94.6
2018-08-14T01:02:53.087Z,95.4
2018-08-14T01:03:53.762Z,94.8
2018-08-14T01:04:54.437Z,95.2
2018-08-14T01:05:55.113Z,95.0
2018-08-14T01:06:55.831Z,95.2
2018-08-14T01:07:56.507Z,94.9
2018-08-14T01:08:57.181Z,95.1
2018-08-14T01:09:57.854Z,95.2
2018-08-14T01:10:58.530Z,95.3
2018-08-14T01:11:59.250Z,95.7
2018-08-14T01:12:59.924Z,95.6
2018-08-14T01:14:00.599Z,95.5
2018-08-14T01:15:01.273Z,95.9
2018-08-14T01:16:01.949Z,95.9
2018-08-14T01:17:02.629Z,95.6
2018-08-14T01:18:03.344Z,95.9
2018-08-14T01:19:04.023Z,96.3
2018-08-14T01:20:04.739Z,96.0
2018-08-14T01:21:05.414Z,96.3
2018-08-14T01:22:06.089Z,96.6
2018-08-14T01:23:06.807Z,96.5
2018-08-14T01:24:07.483Z,96.6
2018-08-14T01:25:08.160Z,96.6
2018-08-14T01:26:08.834Z,96.5
2018-08-14T01:27:09.562Z,96.3
2018-08-14T01:28:10.236Z,96.4
2018-08-14T01:29:10.909Z,96.5
2018-08-14T01:30:11.585Z,96.7
2018-08-14T01:31:12.258Z,96.8
2018-08-14T01:32:12.938Z,97.1
2018-08-14T01:33:13.608Z,96.9
2018-08-14T01:34:14.285Z,97.1
2018-08-14T01:35:14.957Z,96.9
2018-08-14T01:36:15.630Z,96.9
2018-08-14T01:37:16.305Z,96.7
2018-08-14T01:38:16.981Z,97.4
2018-08-14T01:39:17.701Z,97.0
2018-08-14T01:40:18.377Z,96.7
2018-08-14T01:41:19.052Z,97.2
2018-08-14T01:42:19.729Z,96.9
2018-08-14T01:43:20.401Z,96.9
2018-08-14T01:44:21.075Z,96.9
2018-08-14T01:45:21.750Z,97.4
2018-08-14T01:46:22.424Z,97.5
2018-08-14T01:47:23.136Z,96.9
2018-08-14T01:48:23.773Z,96.9
2018-08-14T01:49:24.493Z,97.1
2018-08-14T01:50:25.168Z,96.8
2018-08-14T01:51:25.839Z,97.1
2018-08-14T01:52:26.514Z,97.0
2018-08-14T01:53:27.189Z,96.9
2018-08-14T01:54:27.863Z,96.9
2018-08-14T01:55:28.537Z,96.8
2018-08-14T01:56:29.210Z,96.7
2018-08-14T01:57:29.886Z,96.9
2018-08-14T01:58:30.559Z,96.8
2018-08-14T01:59:31.279Z,96.2
2018-08-14T02:00:31.953Z,96.3
2018-08-14T02:01:32.627Z,96.3
2018-08-14T02:02:33.304Z,96.6
2018-08-14T02:03:33.977Z,96.8
2018-08-14T02:04:34.652Z,96.5
2018-08-14T02:05:35.374Z,95.9
2018-08-14T02:06:36.052Z,96.5
2018-08-14T02:07:36.732Z,96.0
2018-08-14T02:08:37.446Z,96.3
2018-08-14T02:09:38.122Z,95.7
2018-08-14T02:10:38.795Z,95.8
2018-08-14T02:11:39.471Z,95.7
2018-08-14T02:12:40.144Z,95.9
2018-08-14T02:13:40.819Z,96.0
2018-08-14T02:14:41.493Z,96.0
2018-08-14T02:15:42.171Z,95.8
2018-08-14T02:16:42.886Z,95.7
2018-08-14T02:17:43.562Z,95.6
2018-08-14T02:18:44.235Z,95.8
2018-08-14T02:19:44.911Z,95.6
2018-08-14T02:20:45.586Z,96.4
2018-08-14T02:21:46.260Z,96.4
2018-08-14T02:22:46.935Z,96.1
2018-08-14T02:23:47.608Z,95.9
2018-08-14T02:24:48.281Z,96.2
2018-08-14T02:25:48.957Z,96.1
2018-08-14T02:26:49.632Z,95.6
2018-08-14T02:27:50.308Z,95.7
2018-08-14T02:28:50.981Z,95.6
2018-08-14T02:29:51.654Z,95.6
2018-08-14T02:30:52.330Z,95.6
2018-08-14T02:31:53.003Z,95.6
2018-08-14T02:32:53.681Z,95.7
2018-08-14T02:33:54.397Z,95.9
2018-08-14T02:34:55.072Z,96.2
2018-08-14T02:35:55.746Z,95.9
2018-08-14T02:36:56.420Z,96.4
2018-08-14T02:37:57.095Z,96.1
2018-08-14T02:38:57.784Z,96.3
2018-08-14T02:39:58.446Z,96.2
2018-08-14T02:40:59.122Z,95.9
2018-08-14T02:41:59.796Z,96.6
2018-08-14T02:43:00.471Z,96.7
2018-08-14T02:44:01.146Z,95.9
2018-08-14T02:45:01.823Z,96.8
2018-08-14T02:46:02.501Z,96.3
2018-08-14T02:47:03.178Z,96.3
2018-08-14T02:48:03.892Z,96.3
2018-08-14T02:49:04.567Z,96.7
2018-08-14T02:50:05.243Z,96.4
2018-08-14T02:51:05.917Z,96.9
2018-08-14T02:52:06.591Z,96.5
2018-08-14T02:53:07.265Z,96.5
2018-08-14T02:54:07.941Z,96.5
2018-08-14T02:55:08.623Z,96.7
2018-08-14T02:56:09.332Z,96.6
2018-08-14T02:57:10.051Z,96.6
2018-08-14T02:58:10.725Z,96.5
2018-08-14T02:59:11.400Z,96.6
2018-08-14T03:00:12.075Z,95.9
2018-08-14T03:01:12.750Z,96.2
2018-08-14T03:02:13.424Z,95.8
2018-08-14T03:03:14.100Z,96.2
2018-08-14T03:04:14.775Z,95.7
2018-08-14T03:05:15.449Z,96.8
2018-08-14T03:06:16.123Z,96.6
2018-08-14T03:07:16.797Z,96.8
2018-08-14T03:08:17.474Z,96.6
2018-08-14T03:09:18.146Z,96.6
2018-08-14T03:10:18.821Z,96.4
2018-08-14T03:11:19.496Z,96.3
2018-08-14T03:12:20.170Z,96.4
2018-08-14T03:13:20.847Z,96.9
2018-08-14T03:14:21.522Z,97.0
2018-08-14T03:15:22.196Z,97.0
2018-08-14T03:16:22.872Z,97.0
2018-08-14T03:17:23.547Z,96.9
2018-08-14T03:18:24.221Z,96.9
2018-08-14T03:19:24.896Z,97.0
2018-08-14T03:20:25.571Z,97.6
2018-08-14T03:21:26.245Z,97.6
2018-08-14T03:22:26.921Z,97.2
2018-08-14T03:23:27.596Z,97.4
2018-08-14T03:24:28.270Z,97.1
2018-08-14T03:25:28.943Z,97.2
2018-08-14T03:26:29.668Z,97.4
2018-08-14T03:27:30.292Z,97.9
2018-08-14T03:28:30.965Z,97.9
2018-08-14T03:29:31.640Z,98.0
2018-08-14T03:30:32.314Z,98.2
2018-08-14T03:31:32.990Z,97.9
2018-08-14T03:32:33.665Z,97.9
2018-08-14T03:33:34.339Z,98.1
2018-08-14T03:34:35.013Z,98.2
2018-08-14T03:35:35.687Z,98.8
2018-08-14T03:36:36.361Z,98.5
2018-08-14T03:37:37.037Z,99.0
2018-08-14T03:38:37.732Z,98.3
2018-08-14T03:39:38.429Z,98.2
2018-08-14T03:40:39.104Z,98.7
2018-08-14T03:41:39.783Z,98.6
2018-08-14T03:42:40.457Z,98.7
2018-08-14T03:43:41.132Z,99.2
2018-08-14T03:44:41.807Z,99.1
2018-08-14T03:45:42.483Z,98.4
2018-08-14T03:46:43.159Z,99.2
2018-08-14T03:47:43.835Z,99.5
2018-08-14T03:48:44.510Z,99.4
2018-08-14T03:49:45.184Z,99.3
2018-08-14T03:50:45.862Z,99.5
2018-08-14T03:51:46.538Z,99.5
2018-08-14T03:52:47.215Z,99.3
2018-08-14T03:53:47.889Z,98.7
2018-08-14T03:54:48.568Z,99.7
2018-08-14T03:55:49.245Z,99.9
2018-08-14T03:56:49.939Z,99.6
2018-08-14T03:57:50.638Z,99.5
2018-08-14T03:58:51.316Z,99.7
2018-08-14T03:59:51.992Z,99.6
2018-08-14T04:00:52.669Z,99.9
2018-08-14T04:01:53.344Z,99.6
2018-08-14T04:02:54.024Z,100.0
2018-08-14T04:03:54.705Z,99.9
2018-08-14T04:04:55.377Z,99.9
2018-08-14T04:05:56.055Z,99.7
2018-08-14T04:06:56.729Z,99.6
2018-08-14T04:07:57.404Z,99.9
2018-08-14T04:08:58.082Z,99.9
2018-08-14T04:09:58.765Z,100.0
2018-08-14T04:10:59.483Z,99.5
2018-08-14T04:12:00.159Z,99.9
2018-08-14T04:13:00.835Z,99.4
2018-08-14T04:14:01.514Z,99.8
2018-08-14T04:15:02.195Z,100.0
2018-08-14T04:16:02.871Z,99.9
2018-08-14T04:17:03.551Z,100.0
2018-08-14T04:18:04.228Z,99.9
2018-08-14T04:19:04.905Z,99.6
2018-08-14T04:20:05.581Z,99.6
2018-08-14T04:21:06.259Z,99.7
2018-08-14T04:22:06.938Z,99.5
2018-08-14T04:23:07.614Z,99.7
2018-08-14T04:24:08.295Z,100.0
2018-08-14T04:25:08.972Z,99.9
2018-08-14T04:26:09.649Z,99.5
2018-08-14T04:27:10.372Z,99.3
2018-08-14T04:28:11.049Z,99.5
2018-08-14T04:29:11.758Z,99.5
2018-08-14T04:30:12.453Z,99.9
2018-08-14T04:31:13.127Z,99.5
2018-08-14T04:32:13.806Z,99.3
2018-08-14T04:33:14.482Z,99.6
2018-08-14T04:34:15.161Z,99.9
2018-08-14T04:35:15.838Z,99.7
2018-08-14T04:36:16.520Z,99.0
2018-08-14T04:37:17.241Z,99.3
2018-08-14T04:38:17.918Z,98.9
2018-08-14T04:39:18.595Z,99.2
2018-08-14T04:40:19.272Z,99.3
2018-08-14T04:41:19.953Z,99.4
2018-08-14T04:42:20.630Z,99.1
2018-08-14T04:43:21.308Z,99.4
2018-08-14T04:44:21.989Z,99.2
2018-08-14T04:45:22.667Z,99.7
2018-08-14T04:46:23.349Z,99.7
2018-08-14T04:47:24.025Z,99.2
2018-08-14T04:48:24.702Z,99.0
2018-08-14T04:49:25.437Z,99.1
2018-08-14T04:50:26.096Z,99.4
2018-08-14T04:51:26.776Z,99.6
2018-08-14T04:52:27.455Z,98.8
2018-08-14T04:53:28.132Z,99.3
2018-08-14T04:54:28.813Z,98.8
2018-08-14T04:55:29.539Z,98.3
2018-08-14T04:56:30.216Z,98.8
2018-08-14T04:57:30.896Z,99.0
2018-08-14T04:58:31.574Z,98.7
2018-08-14T04:59:32.251Z,98.7
2018-08-14T05:00:32.931Z,98.8
2018-08-14T05:01:33.609Z,98.8
2018-08-14T05:02:34.288Z,97.8
2018-08-14T05:03:34.967Z,98.4
2018-08-14T05:04:35.648Z,97.8
2018-08-14T05:05:36.326Z,98.2
2018-08-14T05:06:37.005Z,97.1
2018-08-14T05:07:37.687Z,97.4
2018-08-14T05:08:38.367Z,97.5
2018-08-14T05:09:39.044Z,96.8
2018-08-14T05:10:39.724Z,97.0
2018-08-14T05:11:40.403Z,97.0
2018-08-14T05:12:41.085Z,96.4
2018-08-14T05:13:41.762Z,96.3
2018-08-14T05:14:42.509Z,96.1
2018-08-14T05:15:43.119Z,96.3
2018-08-14T05:16:43.800Z,96.0
2018-08-14T05:17:44.481Z,95.8
2018-08-14T05:18:45.156Z,96.0
2018-08-14T05:19:45.836Z,95.8
2018-08-14T05:20:46.516Z,95.7
2018-08-14T05:21:47.194Z,95.6
2018-08-14T05:22:47.877Z,95.0
2018-08-14T05:23:48.553Z,94.8
2018-08-14T05:24:49.232Z,95.0
2018-08-14T05:25:49.927Z,95.3
2018-08-14T05:26:50.647Z,95.2
2018-08-14T05:27:51.271Z,94.6
2018-08-14T05:28:51.948Z,95.0
2018-08-14T05:29:52.629Z,94.6
2018-08-14T05:30:53.308Z,94.2
2018-08-14T05:31:53.989Z,93.7
2018-08-14T05:32:54.720Z,93.4
2018-08-14T05:33:55.400Z,93.2
2018-08-14T05:34:56.123Z,93.1
2018-08-14T05:35:56.803Z,92.6
2018-08-14T05:36:57.483Z,91.8
2018-08-14T05:37:58.164Z,91.9
2018-08-14T05:38:58.866Z,91.3
2018-08-14T05:39:59.569Z,90.2
2018-08-14T05:41:00.253Z,90.5
2018-08-14T05:42:00.932Z,89.1
2018-08-14T05:43:01.662Z,88.8
2018-08-14T05:44:02.342Z,89.2
2018-08-14T05:45:03.022Z,88.7
2018-08-14T05:46:03.702Z,88.4
2018-08-14T05:47:04.383Z,88.1
2018-08-14T05:48:05.068Z,87.8
2018-08-14T05:49:05.741Z,87.8
2018-08-14T05:50:06.467Z,87.7
2018-08-14T05:51:07.145Z,87.5
2018-08-14T05:52:07.824Z,87.2
2018-08-14T05:53:08.514Z,87.2
2018-08-14T05:54:09.186Z,87.1
2018-08-14T05:55:09.866Z,86.8
2018-08-14T05:56:10.546Z,87.0
2018-08-14T05:57:11.272Z,86.5
2018-08-14T05:58:11.998Z,87.0
2018-08-14T05:59:12.679Z,86.9
2018-08-14T06:00:13.359Z,86.8
2018-08-14T06:01:14.041Z,86.5
2018-08-14T06:02:14.768Z,86.0
2018-08-14T06:03:15.449Z,86.3
2018-08-14T06:04:16.128Z,86.3
2018-08-14T06:05:16.814Z,85.8
2018-08-14T06:06:17.538Z,85.9
2018-08-14T06:07:18.220Z,86.3
2018-08-14T06:08:18.943Z,85.7
2018-08-14T06:09:19.664Z,85.1
2018-08-14T06:10:20.378Z,85.6
2018-08-14T06:11:21.075Z,85.6
2018-08-14T06:12:21.752Z,85.4
2018-08-14T06:13:22.433Z,85.9
2018-08-14T06:14:23.114Z,85.2
2018-08-14T06:15:23.796Z,85.4
2018-08-14T06:16:24.477Z,85.4
2018-08-14T06:17:25.159Z,84.4
2018-08-14T06:18:25.839Z,84.5
2018-08-14T06:19:26.520Z,85.0
2018-08-14T06:20:27.202Z,83.9
2018-08-14T06:21:27.884Z,83.9
2018-08-14T06:22:28.580Z,83.6
2018-08-14T06:23:29.246Z,83.4
2018-08-14T06:24:29.934Z,82.9
2018-08-14T06:25:30.608Z,82.6
2018-08-14T06:26:31.293Z,81.7
2018-08-14T06:27:31.991Z,81.1
2018-08-14T06:28:32.677Z,81.3
2018-08-14T06:29:33.336Z,80.6
2018-08-14T06:30:34.020Z,80.0
2018-08-14T06:31:34.705Z,78.9
2018-08-14T06:32:35.430Z,78.6
2018-08-14T06:33:36.111Z,77.4
2018-08-14T06:34:36.794Z,76.9
2018-08-14T06:35:37.476Z,75.8
2018-08-14T06:36:38.159Z,75.8
2018-08-14T06:37:38.892Z,75.7
2018-08-14T06:38:39.574Z,75.1
2018-08-14T06:39:40.304Z,74.2
2018-08-14T06:40:41.030Z,74.2
2018-08-14T06:41:41.712Z,74.2
2018-08-14T06:42:42.396Z,73.8
2018-08-14T06:43:43.083Z,73.4
2018-08-14T06:44:43.766Z,72.5
2018-08-14T06:45:44.448Z,69.4
2018-08-14T06:46:45.133Z,68.3
2018-08-14T06:47:45.817Z,67.2
2018-08-14T06:48:46.610Z,66.1
2018-08-14T06:49:47.227Z,66.6
2018-08-14T06:50:47.920Z,66.5
2018-08-14T06:51:48.642Z,66.5
2018-08-14T06:52:49.371Z,66.1
2018-08-14T06:53:50.054Z,66.7
2018-08-14T06:54:50.735Z,67.1
2018-08-14T06:55:51.417Z,66.9
2018-08-14T06:56:52.103Z,66.5
2018-08-14T06:57:52.784Z,67.5
2018-08-14T06:58:53.468Z,68.1
2018-08-14T06:59:54.197Z,68.8
2018-08-14T07:00:54.879Z,69.2
2018-08-14T07:01:55.566Z,69.5
2018-08-14T07:02:56.246Z,68.7
2018-08-14T07:03:56.929Z,69.4
2018-08-14T07:04:57.615Z,69.2
2018-08-14T07:05:58.296Z,69.3
2018-08-14T07:06:58.980Z,69.2
2018-08-14T07:07:59.662Z,69.5
2018-08-14T07:09:00.349Z,69.4
2018-08-14T07:10:01.075Z,69.6
2018-08-14T07:11:01.757Z,69.3
2018-08-14T07:12:02.444Z,69.1
2018-08-14T07:13:03.172Z,69.4
2018-08-14T07:14:03.860Z,69.6
2018-08-14T07:15:04.542Z,69.5
2018-08-14T07:16:05.224Z,69.0
2018-08-14T07:17:05.909Z,68.6
2018-08-14T07:18:06.637Z,68.8
2018-08-14T07:19:07.320Z,68.3
2018-08-14T07:20:08.005Z,67.9
2018-08-14T07:21:08.689Z,67.8
2018-08-14T07:22:09.376Z,67.9
2018-08-14T07:23:10.058Z,68.1
2018-08-14T07:24:10.743Z,68.4
2018-08-14T07:25:11.470Z,68.7
2018-08-14T07:26:12.159Z,68.6
2018-08-14T07:27:12.885Z,68.0
2018-08-14T07:28:13.577Z,68.0
2018-08-14T07:29:14.266Z,68.0
2018-08-14T07:30:14.982Z,67.1
2018-08-14T07:31:15.668Z,66.7
2018-08-14T07:32:16.361Z,64.6
2018-08-14T07:33:17.080Z,62.5
2018-08-14T07:34:17.767Z,59.9
2018-08-14T07:35:18.452Z,56.2
2018-08-14T07:36:19.141Z,54.0
2018-08-14T07:37:19.864Z,52.0
2018-08-14T07:38:20.552Z,49.9
2018-08-14T07:39:21.240Z,49.1
2018-08-14T07:40:21.926Z,47.6
2018-08-14T07:41:22.633Z,46.9
2018-08-14T07:42:23.297Z,46.2
2018-08-14T07:43:23.983Z,46.1
2018-08-14T07:44:24.672Z,44.5
2018-08-14T07:45:25.402Z,43.6
2018-08-14T07:46:26.088Z,42.1
2018-08-14T07:47:26.776Z,41.4
2018-08-14T07:48:27.465Z,40.9
2018-08-14T07:49:28.152Z,41.2
2018-08-14T07:50:28.840Z,40.4
2018-08-14T07:51:29.527Z,40.1
2018-08-14T07:52:30.220Z,40.0
2018-08-14T07:53:30.903Z,40.0
2018-08-14T07:54:31.635Z,40.1
2018-08-14T07:55:32.324Z,39.3
2018-08-14T07:56:33.014Z,40.1
2018-08-14T07:57:33.699Z,40.0
2018-08-14T07:58:34.408Z,39.3
2018-08-14T07:59:35.077Z,38.9
2018-08-14T08:00:35.803Z,38.7
2018-08-14T08:01:36.499Z,38.7
2018-08-14T08:02:37.187Z,38.5
2018-08-14T08:03:37.877Z,37.8
2018-08-14T08:04:38.565Z,38.1
2018-08-14T08:05:39.253Z,38.9
2018-08-14T08:06:39.943Z,38.7
2018-08-14T08:07:40.632Z,38.2
2018-08-14T08:08:41.319Z,37.3
2018-08-14T08:09:42.023Z,36.7
2018-08-14T08:10:42.697Z,35.2
2018-08-14T08:11:43.387Z,34.4
2018-08-14T08:12:44.085Z,33.7
2018-08-14T08:13:44.808Z,33.2
2018-08-14T08:14:45.499Z,33.2
2018-08-14T08:15:46.190Z,32.9
2018-08-14T08:16:46.879Z,32.7
2018-08-14T08:17:47.569Z,32.7
2018-08-14T08:18:48.263Z,32.6
2018-08-14T08:19:48.995Z,32.6
2018-08-14T08:20:49.697Z,32.5
2018-08-14T08:21:50.412Z,32.8
2018-08-14T08:22:51.150Z,32.4
2018-08-14T08:23:51.837Z,33.4
2018-08-14T08:24:52.526Z,33.8
2018-08-14T08:25:53.219Z,34.1
2018-08-14T08:26:53.972Z,33.7
2018-08-14T08:27:54.635Z,33.3
2018-08-14T08:28:55.327Z,32.8
2018-08-14T08:29:56.019Z,32.8
2018-08-14T08:30:56.708Z,32.2
2018-08-14T08:31:57.404Z,33.3
2018-08-14T08:32:58.091Z,33.9
2018-08-14T08:33:58.781Z,34.0
2018-08-14T08:34:59.518Z,34.1
2018-08-14T08:36:00.208Z,34.0
2018-08-14T08:37:00.900Z,33.9
2018-08-14T08:38:01.592Z,34.7
2018-08-14T08:39:02.281Z,34.9
2018-08-14T08:40:02.972Z,34.8
2018-08-14T08:41:03.663Z,34.3
2018-08-14T08:42:04.418Z,34.4
2018-08-14T08:43:05.045Z,34.9
2018-08-14T08:44:05.737Z,35.3
2018-08-14T08:45:06.426Z,34.9
2018-08-14T08:46:07.117Z,34.9
2018-08-14T08:47:07.807Z,35.3
2018-08-14T08:48:08.499Z,35.6
2018-08-14T08:49:09.189Z,36.2
2018-08-14T08:50:09.878Z,36.1
2018-08-14T08:51:10.571Z,37.1
2018-08-14T08:52:11.260Z,37.5
2018-08-14T08:53:11.951Z,39.3
2018-08-14T08:54:12.645Z,39.7
2018-08-14T08:55:13.377Z,41.1
2018-08-14T08:56:14.069Z,42.0
2018-08-14T08:57:14.757Z,42.7
2018-08-14T08:58:15.487Z,43.8
2018-08-14T08:59:16.136Z,44.0
2018-08-14T09:00:16.827Z,44.2
2018-08-14T09:01:17.518Z,44.5
2018-08-14T09:02:18.208Z,44.5
2018-08-14T09:03:18.897Z,44.8
2018-08-14T09:04:19.587Z,43.9
2018-08-14T09:05:20.278Z,43.8
2018-08-14T09:06:20.972Z,43.6
2018-08-14T09:07:21.734Z,42.4
2018-08-14T09:08:22.435Z,41.3
2018-08-14T09:09:23.160Z,41.6
2018-08-14T09:10:23.813Z,41.7
2018-08-14T09:11:24.548Z,41.4
2018-08-14T09:12:25.230Z,40.7
2018-08-14T09:13:25.921Z,40.9
2018-08-14T09:14:26.609Z,40.9
2018-08-14T09:15:27.298Z,40.5
2018-08-14T09:16:27.990Z,39.9
2018-08-14T09:17:28.679Z,39.7
2018-08-14T09:18:29.368Z,40.1
2018-08-14T09:19:30.059Z,40.5
2018-08-14T09:20:30.748Z,40.8
2018-08-14T09:21:31.440Z,41.2
2018-08-14T09:22:32.128Z,41.5
2018-08-14T09:23:32.818Z,41.7
2018-08-14T09:24:33.506Z,41.3
2018-08-14T09:25:34.215Z,41.6
2018-08-14T09:26:34.927Z,42.4
2018-08-14T09:27:35.621Z,42.7
2018-08-14T09:28:36.308Z,42.7
2018-08-14T09:29:36.995Z,42.5
2018-08-14T09:30:37.685Z,43.3
2018-08-14T09:31:38.375Z,44.0
2018-08-14T09:32:39.060Z,44.3
2018-08-14T09:33:39.750Z,46.2
2018-08-14T09:34:40.439Z,46.4
2018-08-14T09:35:41.129Z,46.7
2018-08-14T09:36:41.814Z,47.5
2018-08-14T09:37:42.502Z,48.2
2018-08-14T09:38:43.189Z,48.8
2018-08-14T09:39:43.879Z,49.0
2018-08-14T09:40:44.565Z,49.5
2018-08-14T09:41:45.253Z,50.0
2018-08-14T09:42:45.998Z,50.0
2018-08-14T09:43:46.667Z,49.6
2018-08-14T09:44:47.353Z,50.4
2018-08-14T09:45:48.042Z,50.4
2018-08-14T09:46:48.737Z,50.4
2018-08-14T09:47:49.416Z,50.6
2018-08-14T09:48:50.103Z,49.8
2018-08-14T09:49:50.791Z,50.0
2018-08-14T09:50:51.477Z,50.5
2018-08-14T09:51:52.170Z,50.4
2018-08-14T09:52:52.854Z,50.4
2018-08-14T09:53:53.631Z,50.9
2018-08-14T09:54:54.309Z,50.9
2018-08-14T09:55:54.997Z,50.3
2018-08-14T09:56:55.683Z,50.4
2018-08-14T09:57:56.371Z,50.2
2018-08-14T09:58:57.060Z,50.2
2018-08-14T09:59:57.749Z,50.3
2018-08-14T10:00:58.434Z,49.9
2018-08-14T10:01:59.121Z,49.2
2018-08-14T10:02:59.855Z,49.8
2018-08-14T10:04:00.540Z,49.9
2018-08-14T10:05:01.227Z,49.6
2018-08-14T10:06:01.920Z,49.9
2018-08-14T10:07:02.648Z,49.7
2018-08-14T10:08:03.336Z,49.6
2018-08-14T10:09:04.021Z,50.3
2018-08-14T10:10:04.707Z,50.9
2018-08-14T10:11:05.415Z,51.9
2018-08-14T10:12:06.126Z,52.1
2018-08-14T10:13:06.812Z,52.2
2018-08-14T10:14:07.498Z,53.1
2018-08-14T10:15:08.186Z,53.6
2018-08-14T10:16:08.871Z,54.2
2018-08-14T10:17:09.558Z,54.5
2018-08-14T10:18:10.242Z,54.6
2018-08-14T10:19:10.929Z,54.7
2018-08-14T10:20:11.614Z,54.8
2018-08-14T10:21:12.301Z,54.7
2018-08-14T10:22:12.990Z,54.4
2018-08-14T10:23:13.671Z,55.0
2018-08-14T10:24:14.356Z,54.8
2018-08-14T10:25:15.044Z,54.6
2018-08-14T10:26:15.774Z,54.2
2018-08-14T10:27:16.461Z,54.3
2018-08-14T10:28:17.204Z,54.9
2018-08-14T10:29:17.921Z,54.7
2018-08-14T10:30:18.658Z,54.7
2018-08-14T10:31:19.387Z,54.8
2018-08-14T10:32:20.073Z,54.2
2018-08-14T10:33:20.757Z,54.5
2018-08-14T10:34:21.444Z,54.5
2018-08-14T10:35:22.129Z,54.1
2018-08-14T10:36:22.815Z,54.0
2018-08-14T10:37:23.501Z,54.1
2018-08-14T10:38:24.186Z,53.5
2018-08-14T10:39:24.871Z,53.4
2018-08-14T10:40:25.559Z,53.6
2018-08-14T10:41:26.245Z,54.1
2018-08-14T10:42:26.929Z,54.4
2018-08-14T10:43:27.616Z,54.1
2018-08-14T10:44:28.301Z,54.3
2018-08-14T10:45:28.985Z,54.2
2018-08-14T10:46:29.740Z,54.0
2018-08-14T10:47:30.393Z,54.2
2018-08-14T10:48:31.079Z,53.5
2018-08-14T10:49:31.767Z,53.8
2018-08-14T10:50:32.449Z,53.3
2018-08-14T10:51:33.135Z,53.2
2018-08-14T10:52:33.840Z,52.9
2018-08-14T10:53:34.550Z,53.0
2018-08-14T10:54:35.235Z,51.9
2018-08-14T10:55:35.924Z,52.0
2018-08-14T10:56:36.608Z,51.8
2018-08-14T10:57:37.295Z,51.1
2018-08-14T10:58:38.027Z,50.6
2018-08-14T10:59:38.670Z,50.7
2018-08-14T11:00:39.357Z,50.0
2018-08-14T11:01:40.090Z,49.2
2018-08-14T11:02:40.775Z,49.4
2018-08-14T11:03:41.459Z,49.0
2018-08-14T11:04:42.157Z,48.8
2018-08-14T11:05:42.833Z,48.6
2018-08-14T11:06:43.519Z,49.1
2018-08-14T11:07:44.205Z,49.7
2018-08-14T11:08:44.926Z,49.7
2018-08-14T11:09:45.574Z,50.2
2018-08-14T11:10:46.295Z,51.3
2018-08-14T11:11:46.968Z,52.0
2018-08-14T11:12:47.631Z,52.2
2018-08-14T11:13:48.318Z,52.8
2018-08-14T11:14:49.004Z,52.6
2018-08-14T11:15:49.690Z,53.6
2018-08-14T11:16:50.376Z,53.4
2018-08-14T11:17:51.062Z,54.1
2018-08-14T11:18:51.747Z,54.6
2018-08-14T11:19:52.433Z,54.8
2018-08-14T11:20:53.117Z,55.0
2018-08-14T11:21:53.803Z,55.4
2018-08-14T11:22:54.538Z,55.8
2018-08-14T11:23:55.223Z,56.0
2018-08-14T11:24:56.040Z,56.0
2018-08-14T11:25:56.595Z,56.1
2018-08-14T11:26:57.278Z,56.9
2018-08-14T11:27:57.964Z,56.9
2018-08-14T11:28:58.651Z,57.5
2018-08-14T11:29:59.332Z,58.0
2018-08-14T11:31:00.018Z,58.0
2018-08-14T11:32:00.701Z,58.2
2018-08-14T11:33:01.388Z,57.7
2018-08-14T11:34:02.077Z,57.8
2018-08-14T11:35:02.833Z,56.9
2018-08-14T11:36:03.531Z,56.0
2018-08-14T11:37:04.219Z,55.3
2018-08-14T11:38:04.951Z,54.7
2018-08-14T11:39:05.634Z,54.3
2018-08-14T11:40:06.321Z,53.3
2018-08-14T11:41:07.008Z,53.7
2018-08-14T11:42:07.690Z,53.1
2018-08-14T11:43:08.377Z,53.3
2018-08-14T11:44:09.064Z,53.2
2018-08-14T11:45:09.845Z,53.3
2018-08-14T11:46:10.530Z,52.9
2018-08-14T11:47:11.214Z,53.0
2018-08-14T11:48:11.900Z,52.4
2018-08-14T11:49:12.586Z,52.1
2018-08-14T11:50:13.272Z,51.9
2018-08-14T11:51:13.958Z,51.7
2018-08-14T11:52:14.644Z,52.0
2018-08-14T11:53:15.328Z,51.8
2018-08-14T11:54:16.008Z,51.9
2018-08-14T11:55:16.692Z,52.1
2018-08-14T11:56:17.376Z,52.1
2018-08-14T11:57:18.063Z,52.0
2018-08-14T11:58:18.750Z,52.1
2018-08-14T11:59:19.434Z,52.1
2018-08-14T12:00:20.136Z,52.4
2018-08-14T12:01:20.855Z,52.8
2018-08-14T12:02:21.544Z,52.8
2018-08-14T12:03:22.243Z,52.9
2018-08-14T12:04:22.957Z,52.5
2018-08-14T12:05:23.645Z,53.3
2018-08-14T12:06:24.337Z,53.1
2018-08-14T12:07:25.066Z,53.1
2018-08-14T12:08:25.750Z,53.3
2018-08-14T12:09:26.441Z,53.2
2018-08-14T12:10:27.120Z,53.5
2018-08-14T12:11:27.805Z,53.1
2018-08-14T12:12:28.492Z,52.6
2018-08-14T12:13:29.179Z,52.9
2018-08-14T12:14:29.904Z,53.4
2018-08-14T12:15:30.594Z,53.2
2018-08-14T12:16:31.279Z,53.3
2018-08-14T12:17:31.964Z,53.2
2018-08-14T12:18:32.728Z,52.9
2018-08-14T12:19:33.383Z,52.3
2018-08-14T12:20:34.067Z,52.8
2018-08-14T12:21:34.751Z,52.8
2018-08-14T12:22:35.439Z,52.8
2018-08-14T12:23:36.124Z,53.3
2018-08-14T12:24:36.807Z,53.6
2018-08-14T12:25:37.503Z,53.7
2018-08-14T12:26:38.180Z,53.7
2018-08-14T12:27:38.866Z,53.6
2018-08-14T12:28:39.552Z,53.8
2018-08-14T12:29:40.238Z,53.7
2018-08-14T12:30:40.967Z,53.3
2018-08-14T12:31:41.664Z,53.0
2018-08-14T12:33:57.901Z,53.3
2018-08-14T12:34:58.624Z,53.5
2018-08-14T12:35:59.373Z,53.1
2018-08-14T12:37:00.114Z,53.3
2018-08-14T12:38:00.805Z,53.6
2018-08-14T12:39:01.494Z,53.5
2018-08-14T12:40:02.183Z,53.9
2018-08-14T12:41:02.922Z,53.6
2018-08-14T12:42:03.663Z,54.5
2018-08-14T12:43:04.355Z,54.7
2018-08-14T12:44:05.045Z,54.7
2018-08-14T12:45:05.816Z,55.6
2018-08-14T12:46:06.574Z,55.2
2018-08-14T12:47:07.262Z,55.3
2018-08-14T12:48:08.051Z,55.5
2018-08-14T12:49:08.740Z,55.9
2018-08-14T12:50:09.428Z,56.3
2018-08-14T12:51:10.117Z,56.0
2018-08-14T12:52:10.804Z,56.8
2018-08-14T12:53:11.546Z,56.9
2018-08-14T12:54:12.234Z,57.3
2018-08-14T12:55:12.924Z,57.7
2018-08-14T12:56:13.613Z,58.0
2018-08-14T12:57:14.380Z,58.6
2018-08-14T12:58:15.140Z,58.9
2018-08-14T12:59:15.875Z,59.1
2018-08-14T13:00:16.564Z,60.0
2018-08-14T13:01:17.253Z,60.4
2018-08-14T13:02:17.941Z,62.0
2018-08-14T13:03:18.720Z,62.1
2018-08-14T13:04:19.408Z,65.4
2018-08-14T13:05:20.097Z,65.2
2018-08-14T13:06:20.787Z,64.7
2018-08-14T13:07:21.477Z,65.0
2018-08-14T13:08:22.217Z,64.7
2018-08-14T13:09:22.907Z,65.4
2018-08-14T13:10:23.595Z,65.5
2018-08-14T13:11:24.334Z,65.7
2018-08-14T13:12:25.024Z,65.6
2018-08-14T13:13:25.762Z,64.3
2018-08-14T13:14:26.501Z,63.7
2018-08-14T13:15:27.239Z,64.0
2018-08-14T13:16:27.929Z,63.2
2018-08-14T13:17:28.617Z,63.8
2018-08-14T13:18:29.305Z,63.5
2018-08-14T13:19:29.995Z,63.0
2018-08-14T13:20:30.781Z,63.5
2018-08-14T13:21:31.488Z,63.5
2018-08-14T13:22:32.204Z,63.3
2018-08-14T13:23:32.890Z,63.2
2018-08-14T13:24:33.580Z,64.0
2018-08-14T13:25:34.317Z,63.8
2018-08-14T13:26:35.005Z,64.5
2018-08-14T13:27:35.687Z,65.2
2018-08-14T13:28:36.370Z,67.4